Time;durP1;ratioP1;P1;durP2;ratioP2;P2;SDS_P1;SDS_P2;PMS_P1;PMS_P2;Temp;Humidity;BMP_temperature;BMP_pressure;BME280_temperature;BME280_humidity;BME280_pressure;Samples;Min_cycle;Max_cycle;Signal;HPM_P1;HPM_P2
2022/07/19 00:00:59;;;;;;;8.55;3.85;;;;;;;25.38;43.16;101883.09;5197378;28;20605;-63
2022/07/19 00:03:31;;;;;;;8.32;4.35;;;;;;;25.20;43.48;101859.56;5199922;28;20425;-63
2022/07/19 00:06:04;;;;;;;7.75;3.78;;;;;;;25.35;43.64;101880.84;5196613;28;20794;-64
2022/07/19 00:08:36;;;;;;;7.95;3.95;;;;;;;25.29;43.45;101875.25;5201707;28;20429;-63
2022/07/19 00:11:09;;;;;;;9.32;4.40;;;;;;;25.25;43.48;101876.78;5198767;28;20428;-63
2022/07/19 00:13:42;;;;;;;5.68;3.63;;;;;;;25.15;43.35;101860.25;5195743;28;20868;-62
2022/07/19 00:16:16;;;;;;;6.35;3.97;;;;;;;25.18;43.62;101873.31;5197254;28;20451;-63
2022/07/19 00:18:49;;;;;;;7.13;3.67;;;;;;;24.93;43.80;101837.31;5199618;28;20398;-59
2022/07/19 00:21:21;;;;;;;8.90;4.03;;;;;;;25.05;43.97;101857.16;5196314;28;20470;-61
2022/07/19 00:23:54;;;;;;;6.37;3.83;;;;;;;24.89;44.03;101833.41;5198205;28;20419;-64
2022/07/19 00:26:26;;;;;;;7.65;4.18;;;;;;;25.01;44.20;101858.66;5197343;28;20527;-48
2022/07/19 00:29:01;;;;;;;10.18;3.83;;;;;;;24.98;44.22;101861.81;5196860;28;20800;-62
2022/07/19 00:31:34;;;;;;;6.95;4.00;;;;;;;24.94;44.20;101866.00;5200815;28;20530;-60
2022/07/19 00:34:06;;;;;;;7.72;4.10;;;;;;;24.91;44.28;101861.03;5196211;28;20788;-59
2022/07/19 00:36:39;;;;;;;7.00;4.00;;;;;;;24.87;44.39;101866.06;5200091;28;20916;-63
2022/07/19 00:39:11;;;;;;;8.57;4.25;;;;;;;24.81;44.47;101862.34;5198974;28;20454;-58
2022/07/19 00:41:44;;;;;;;9.68;4.30;;;;;;;24.73;44.48;101859.91;5196862;28;20442;-63
2022/07/19 00:44:21;;;;;;;5.72;3.50;;;;;;;24.75;44.68;101855.13;5193468;28;20505;-63
2022/07/19 00:46:54;;;;;;;11.17;4.23;;;;;;;24.72;44.74;101854.75;5197120;28;20434;-59
2022/07/19 00:49:26;;;;;;;7.37;4.47;;;;;;;24.65;44.91;101851.25;5199359;28;20477;-63
2022/07/19 00:52:00;;;;;;;6.57;4.10;;;;;;;24.61;44.91;101857.09;5196306;28;20573;-61
2022/07/19 00:54:36;;;;;;;11.25;4.40;;;;;;;23.99;45.16;101779.56;5198010;28;20438;-59
2022/07/19 00:57:09;;;;;;;8.00;4.00;;;;;;;24.52;45.28;101852.16;5196680;28;20472;-63
2022/07/19 00:59:43;;;;;;;6.00;4.15;;;;;;;24.49;45.50;101847.19;5194810;28;20808;-57
2022/07/19 01:02:16;;;;;;;8.73;4.70;;;;;;;24.30;45.61;101822.78;5193642;28;20417;-61
2022/07/19 01:04:48;;;;;;;7.93;4.32;;;;;;;24.35;45.82;101838.34;5198742;28;20801;-64
2022/07/19 01:07:20;;;;;;;9.07;4.80;;;;;;;24.33;45.92;101854.75;5196950;28;20972;-65
2022/07/19 01:09:53;;;;;;;6.28;4.55;;;;;;;24.29;46.10;101840.03;5194175;28;20458;-46
2022/07/19 01:12:26;;;;;;;5.97;3.75;;;;;;;24.30;46.14;101846.25;5208034;28;20461;-61
2022/07/19 01:15:00;;;;;;;6.20;4.05;;;;;;;24.21;46.38;101851.06;5214182;28;20862;-60
2022/07/19 01:17:33;;;;;;;6.78;4.35;;;;;;;24.27;46.34;101843.97;5205187;28;20522;-58
2022/07/19 01:20:07;;;;;;;8.70;4.70;;;;;;;24.25;46.46;101841.50;5204698;28;20472;-54
2022/07/19 01:22:42;;;;;;;7.47;4.28;;;;;;;24.21;46.31;101840.28;5200344;28;20466;-63
2022/07/19 01:25:15;;;;;;;8.90;4.20;;;;;;;24.14;46.46;101832.22;5195872;28;20822;-51
2022/07/19 01:27:49;;;;;;;7.85;4.25;;;;;;;24.14;46.69;101837.59;5195873;28;20463;-63
2022/07/19 01:30:25;;;;;;;7.63;4.57;;;;;;;24.10;46.73;101828.31;5196871;28;20954;-62
2022/07/19 01:32:58;;;;;;;7.60;4.35;;;;;;;24.08;46.79;101832.25;5196167;28;20476;-63
2022/07/19 01:35:30;;;;;;;8.75;3.85;;;;;;;24.07;46.75;101833.31;5200282;28;20533;-65
2022/07/19 01:38:04;;;;;;;7.20;4.40;;;;;;;24.05;46.69;101829.97;5193849;28;20472;-58
2022/07/19 01:40:37;;;;;;;8.40;4.28;;;;;;;24.02;46.90;101841.19;5197650;28;20794;-62
2022/07/19 01:43:09;;;;;;;6.78;4.30;;;;;;;24.02;46.83;101839.31;5198729;28;20570;-64
2022/07/19 01:45:42;;;;;;;7.07;3.75;;;;;;;23.81;47.04;101808.06;5192947;28;20515;-63
2022/07/19 01:48:14;;;;;;;5.95;4.03;;;;;;;23.89;46.87;101821.34;5198366;28;20444;-53
2022/07/19 01:50:46;;;;;;;11.15;5.28;;;;;;;23.92;46.93;101823.59;5196537;28;20468;-63
2022/07/19 01:53:20;;;;;;;6.72;4.45;;;;;;;23.98;46.84;101840.00;5198072;28;20957;-63
2022/07/19 01:55:53;;;;;;;6.05;3.63;;;;;;;23.95;46.90;101837.72;5194489;28;20927;-55
2022/07/19 01:58:25;;;;;;;6.60;4.13;;;;;;;23.93;46.83;101838.75;5195017;28;20428;-63
2022/07/19 02:00:57;;;;;;;8.45;3.60;;;;;;;23.91;46.93;101838.16;5195708;28;21002;-58
2022/07/19 02:03:30;;;;;;;9.38;4.53;;;;;;;23.87;46.96;101836.06;5198338;28;20564;-61
2022/07/19 02:06:03;;;;;;;7.32;4.30;;;;;;;23.85;47.14;101847.09;5193061;28;20428;-57
2022/07/19 02:08:37;;;;;;;9.70;3.92;;;;;;;23.78;46.95;101840.88;5195877;28;20468;-63
2022/07/19 02:13:56;;;;;;;11.07;4.40;;;;;;;23.75;47.20;101835.09;5195271;28;20482;-61
2022/07/19 02:16:29;;;;;;;9.90;4.15;;;;;;;23.64;47.12;101831.16;5199865;28;20433;-61
2022/07/19 02:19:02;;;;;;;5.72;3.72;;;;;;;23.69;47.25;101836.75;5196067;28;20583;-61
2022/07/19 02:21:34;;;;;;;8.73;4.50;;;;;;;23.66;47.27;101835.31;5186193;28;20428;-60
2022/07/19 02:24:09;;;;;;;6.88;4.07;;;;;;;23.63;47.40;101833.03;5198899;28;20429;-63
2022/07/19 02:26:41;;;;;;;8.93;4.25;;;;;;;23.59;47.22;101821.00;5193134;28;21054;-62
2022/07/19 02:29:14;;;;;;;9.75;4.30;;;;;;;23.60;47.26;101827.22;5194574;28;20425;-60
2022/07/19 02:31:46;;;;;;;11.85;5.35;;;;;;;23.57;47.19;101828.50;5194565;28;20496;-61
2022/07/19 02:34:18;;;;;;;10.82;5.47;;;;;;;23.52;47.40;101824.75;5193715;28;20519;-64
2022/07/19 02:36:51;;;;;;;8.20;4.07;;;;;;;23.48;47.39;101825.19;5192626;28;20429;-62
2022/07/19 02:39:24;;;;;;;7.00;3.78;;;;;;;23.45;47.34;101824.78;5193793;28;20425;-49
2022/07/19 02:41:57;;;;;;;7.82;4.40;;;;;;;23.09;47.60;101768.66;5195511;28;20938;-64
2022/07/19 02:44:29;;;;;;;10.77;4.00;;;;;;;23.39;47.62;101823.75;5197427;28;20458;-65
2022/07/19 02:47:02;;;;;;;6.40;3.60;;;;;;;23.37;47.65;101827.69;5196265;28;20463;-60
2022/07/19 02:49:34;;;;;;;7.68;4.45;;;;;;;23.33;47.69;101816.50;5197642;28;20508;-63
2022/07/19 02:52:06;;;;;;;6.53;4.60;;;;;;;23.23;47.96;101816.13;5198459;28;20460;-58
2022/07/19 02:54:41;;;;;;;8.68;4.20;;;;;;;23.25;47.79;101817.53;5195141;28;20433;-60
2022/07/19 02:57:13;;;;;;;7.85;4.63;;;;;;;23.24;47.87;101823.16;5197243;28;20405;-63
2022/07/19 02:59:45;;;;;;;9.27;4.85;;;;;;;23.21;48.04;101824.41;5198695;28;20440;-62
2022/07/19 03:02:18;;;;;;;8.70;4.88;;;;;;;23.19;48.07;101821.09;5194870;28;20421;-63
2022/07/19 03:04:50;;;;;;;10.32;4.70;;;;;;;23.16;48.02;101820.69;5194423;28;20556;-64
2022/07/19 03:07:23;;;;;;;7.80;5.07;;;;;;;23.02;48.40;101804.53;5195922;28;20461;-59
2022/07/19 03:09:56;;;;;;;9.10;4.88;;;;;;;23.10;48.18;101822.34;5197921;28;20572;-58
2022/07/19 03:12:29;;;;;;;9.10;4.82;;;;;;;22.48;48.19;101722.09;5200353;28;20424;-64
2022/07/19 03:15:01;;;;;;;13.38;4.53;;;;;;;22.98;48.47;101814.09;5200658;28;20504;-63
2022/07/19 03:17:34;;;;;;;8.73;4.40;;;;;;;22.97;48.48;101815.09;5202762;28;20432;-61
2022/07/19 03:20:09;;;;;;;9.35;4.38;;;;;;;23.02;48.39;101818.00;5199097;28;20723;-64
2022/07/19 03:22:41;;;;;;;10.00;4.70;;;;;;;23.00;48.59;101812.00;5198627;28;21331;-54
2022/07/19 03:25:15;;;;;;;7.75;4.10;;;;;;;22.98;48.42;101814.09;5198833;28;20405;-62
2022/07/19 03:27:48;;;;;;;8.50;5.00;;;;;;;22.92;48.46;101798.72;5199721;28;20427;-61
2022/07/19 03:30:20;;;;;;;11.40;4.38;;;;;;;22.86;48.47;101796.03;5198074;28;20397;-62
2022/07/19 03:32:52;;;;;;;8.68;4.88;;;;;;;22.91;48.62;101813.19;5195189;28;20554;-52
2022/07/19 03:35:25;;;;;;;7.20;4.25;;;;;;;22.85;48.70;101811.34;5196982;28;20416;-57
2022/07/19 03:37:57;;;;;;;6.90;4.10;;;;;;;22.88;48.49;101807.41;5201310;28;20518;-64
2022/07/19 03:40:32;;;;;;;8.13;4.57;;;;;;;22.87;48.38;101803.91;5198237;28;20397;-63
2022/07/19 03:43:04;;;;;;;6.32;4.18;;;;;;;22.86;48.67;101804.94;5201909;28;20515;-63
2022/07/19 03:45:36;;;;;;;8.75;4.40;;;;;;;22.83;48.46;101805.34;5196384;28;20433;-62
2022/07/19 03:48:09;;;;;;;9.40;4.57;;;;;;;22.82;48.55;101811.75;5200988;28;20422;-60
2022/07/19 03:50:41;;;;;;;6.35;4.00;;;;;;;22.79;48.68;101806.78;5197679;28;20556;-62
2022/07/19 03:53:14;;;;;;;7.18;3.92;;;;;;;22.79;48.42;101812.16;5198001;28;20411;-60
2022/07/19 03:55:47;;;;;;;9.13;3.95;;;;;;;22.76;48.54;101810.75;5203120;28;20425;-59
2022/07/19 03:58:20;;;;;;;7.80;4.57;;;;;;;22.79;48.58;101814.88;5198359;28;20417;-59
2022/07/19 04:00:53;;;;;;;7.57;4.68;;;;;;;22.79;48.36;101812.16;5198460;28;20430;-63
2022/07/19 04:03:25;;;;;;;6.35;4.15;;;;;;;22.80;48.30;101811.16;5193568;28;20868;-54
2022/07/19 04:05:58;;;;;;;8.00;3.90;;;;;;;22.80;48.33;101805.75;5198229;28;20430;-60
2022/07/19 04:08:30;;;;;;;8.65;4.50;;;;;;;22.82;48.13;101803.69;5200100;28;20747;-62
2022/07/19 04:11:04;;;;;;;7.90;5.07;;;;;;;22.82;48.23;101803.69;5195057;28;20996;-64
2022/07/19 04:13:37;;;;;;;8.50;4.23;;;;;;;22.82;48.02;101803.69;5205481;28;20492;-62
2022/07/19 04:16:10;;;;;;;6.90;4.10;;;;;;;22.84;48.32;101807.00;5209692;28;20439;-62
2022/07/19 04:18:42;;;;;;;7.20;3.85;;;;;;;22.86;48.16;101799.56;5209005;28;20425;-64
2022/07/19 04:21:14;;;;;;;9.68;5.10;;;;;;;22.89;48.23;101807.22;5216893;28;20532;-57
2022/07/19 04:23:47;;;;;;;10.23;4.22;;;;;;;22.92;47.98;101814.88;5221817;28;20404;-61
2022/07/19 04:26:20;;;;;;;8.70;4.43;;;;;;;22.95;47.94;101814.50;5209996;28;20428;-57
2022/07/19 04:28:53;;;;;;;10.32;4.15;;;;;;;22.93;48.03;101803.06;5193825;28;20403;-50
2022/07/19 04:31:25;;;;;;;6.00;4.25;;;;;;;22.99;48.06;101813.03;5202042;28;20439;-63
2022/07/19 04:33:57;;;;;;;10.10;4.75;;;;;;;23.08;47.94;101818.22;5207607;28;20448;-62
2022/07/19 04:36:30;;;;;;;7.13;3.80;;;;;;;23.12;48.07;101814.06;5207351;28;20436;-60
2022/07/19 04:39:02;;;;;;;8.25;3.75;;;;;;;23.16;47.96;101815.28;5205778;28;20435;-56
2022/07/19 04:41:36;;;;;;;7.25;3.60;;;;;;;23.21;47.94;101812.81;5206918;28;20417;-63
2022/07/19 04:44:08;;;;;;;9.55;4.07;;;;;;;23.28;47.76;101815.47;5205663;28;20478;-62
2022/07/19 04:46:40;;;;;;;7.40;3.67;;;;;;;23.36;47.59;101821.47;5203855;28;20421;-59
2022/07/19 04:49:13;;;;;;;11.15;3.65;;;;;;;23.43;47.42;101816.06;5206567;28;20823;-61
2022/07/19 04:51:45;;;;;;;7.70;4.03;;;;;;;23.50;47.33;101816.03;5205347;28;20462;-62
2022/07/19 04:54:17;;;;;;;8.30;4.22;;;;;;;23.57;47.35;101822.25;5205481;28;20531;-58
2022/07/19 04:56:52;;;;;;;7.38;4.10;;;;;;;23.64;47.12;101817.69;5207163;28;20413;-62
2022/07/19 04:59:24;;;;;;;8.20;4.18;;;;;;;23.72;47.20;101817.44;5202596;28;20529;-59
2022/07/19 05:01:56;;;;;;;7.18;3.72;;;;;;;23.79;47.02;101820.97;5197516;28;20431;-56
2022/07/19 05:04:29;;;;;;;10.07;4.15;;;;;;;23.88;46.99;101817.00;5204014;28;20468;-62
2022/07/19 05:07:01;;;;;;;9.15;4.15;;;;;;;23.98;46.89;101818.41;5203122;28;20486;-58
2022/07/19 05:09:33;;;;;;;9.52;5.32;;;;;;;24.05;46.75;101820.00;5203583;28;20452;-63
2022/07/19 05:12:09;;;;;;;8.50;4.68;;;;;;;24.13;46.71;101816.25;5207613;28;20421;-61
2022/07/19 05:14:41;;;;;;;10.05;4.30;;;;;;;23.81;46.63;101754.13;5206464;28;20869;-62
2022/07/19 05:17:14;;;;;;;10.60;4.10;;;;;;;24.28;46.58;101813.22;5195568;28;21214;-62
2022/07/19 05:19:46;;;;;;;8.00;4.35;;;;;;;24.36;46.32;101811.09;5203254;28;20437;-57
2022/07/19 05:22:18;;;;;;;9.57;5.28;;;;;;;24.53;46.25;101816.03;5207267;28;20390;-61
2022/07/19 05:24:51;;;;;;;13.77;4.65;;;;;;;24.87;45.73;101812.00;5204670;28;20427;-62
2022/07/19 05:27:25;;;;;;;8.02;4.28;;;;;;;25.76;44.93;101805.25;5199653;28;20753;-61
2022/07/19 05:29:57;;;;;;;11.40;3.83;;;;;;;26.89;43.63;101809.06;5204018;28;20398;-64
2022/07/19 05:32:30;;;;;;;7.30;4.03;;;;;;;27.95;42.32;101806.19;5204316;28;20429;-66
2022/07/19 05:35:02;;;;;;;14.02;4.97;;;;;;;29.03;41.20;101816.22;5207787;28;20471;-65
2022/07/19 05:37:34;;;;;;;11.73;4.70;;;;;;;29.98;40.00;101817.75;5206127;28;20424;-61
2022/07/19 05:40:08;;;;;;;9.90;4.68;;;;;;;30.85;39.07;101809.56;5196906;28;20423;-54
2022/07/19 05:42:42;;;;;;;16.15;4.88;;;;;;;31.65;38.30;101808.34;5196401;28;20508;-54
2022/07/19 05:45:15;;;;;;;9.32;4.05;;;;;;;32.37;37.20;101808.50;5194433;28;20419;-54
2022/07/19 05:47:47;;;;;;;10.55;4.65;;;;;;;33.05;36.63;101811.78;5190294;28;20436;-52
2022/07/19 05:50:20;;;;;;;12.23;4.88;;;;;;;33.80;35.50;101812.88;5191611;28;20514;-55
2022/07/19 05:52:52;;;;;;;12.57;4.50;;;;;;;34.50;34.92;101799.78;5197422;28;20435;-55
2022/07/19 05:55:25;;;;;;;10.50;4.63;;;;;;;35.08;34.14;101799.75;5194185;28;20418;-60
2022/07/19 05:57:58;;;;;;;8.10;4.13;;;;;;;35.58;33.12;101806.88;5192174;28;20823;-58
2022/07/19 06:00:31;;;;;;;10.27;4.32;;;;;;;35.93;32.64;101802.81;5193736;28;20917;-53
2022/07/19 06:03:03;;;;;;;8.52;4.20;;;;;;;36.31;32.14;101805.53;5190037;28;20895;-57
2022/07/19 06:05:36;;;;;;;12.97;4.70;;;;;;;36.70;31.53;101800.47;5202039;28;20751;-58
2022/07/19 06:08:08;;;;;;;13.13;5.10;;;;;;;37.16;30.93;101799.59;5201930;28;20417;-56
2022/07/19 06:10:40;;;;;;;19.40;6.28;;;;;;;37.49;30.50;101796.72;5202347;28;20444;-58
2022/07/19 06:13:14;;;;;;;12.13;4.85;;;;;;;37.83;30.06;101798.16;5197338;28;20378;-60
2022/07/19 06:15:46;;;;;;;11.88;4.43;;;;;;;38.28;29.44;101801.78;5198566;28;20516;-59
2022/07/19 06:18:19;;;;;;;15.48;4.10;;;;;;;38.80;28.87;101798.50;5196704;28;20879;-59
2022/07/19 06:20:51;;;;;;;10.88;4.20;;;;;;;39.36;28.21;101794.19;5193188;28;20425;-58
2022/07/19 06:23:24;;;;;;;15.48;4.85;;;;;;;39.70;27.45;101786.25;5190234;28;20570;-60
2022/07/19 06:25:56;;;;;;;10.77;4.20;;;;;;;40.18;27.17;101794.41;5190838;28;20440;-59
2022/07/19 06:28:30;;;;;;;14.50;4.73;;;;;;;40.60;26.66;101791.88;5193313;28;20425;-59
2022/07/19 06:31:02;;;;;;;14.27;4.25;;;;;;;40.66;26.52;101787.78;5190020;28;20433;-58
2022/07/19 06:33:35;;;;;;;15.20;4.13;;;;;;;40.75;26.41;101794.09;5193786;28;22489;-58
2022/07/19 06:36:08;;;;;;;9.25;4.28;;;;;;;40.90;26.06;101786.38;5191028;28;20739;-59
2022/07/19 06:38:41;;;;;;;10.65;3.88;;;;;;;41.17;25.81;101794.25;5193439;28;20423;-59
2022/07/19 06:41:14;;;;;;;13.20;4.22;;;;;;;41.40;25.31;101783.63;5190976;28;20421;-58
2022/07/19 06:43:48;;;;;;;13.13;4.00;;;;;;;41.69;25.11;101788.34;5188753;28;20422;-58
2022/07/19 06:46:20;;;;;;;11.88;3.90;;;;;;;41.74;25.12;101790.09;5197139;28;20897;-56
2022/07/19 06:48:52;;;;;;;12.70;3.50;;;;;;;42.03;24.44;101789.22;5200483;28;20521;-59
2022/07/19 06:51:25;;;;;;;11.70;3.85;;;;;;;42.40;24.18;101794.88;5199187;28;20417;-60
2022/07/19 06:53:57;;;;;;;10.70;3.27;;;;;;;42.51;23.83;101789.69;5199667;28;20492;-57
2022/07/19 06:56:30;;;;;;;9.32;2.92;;;;;;;42.78;23.98;101785.47;5201433;28;20420;-61
2022/07/19 06:59:03;;;;;;;11.00;3.15;;;;;;;43.07;23.25;101795.50;5193991;28;20920;-61
2022/07/19 07:01:36;;;;;;;11.03;3.57;;;;;;;43.47;22.76;101790.03;5191041;28;20439;-60
2022/07/19 07:04:08;;;;;;;8.63;2.97;;;;;;;43.58;22.99;101782.03;5190492;28;20429;-60
2022/07/19 07:06:41;;;;;;;11.90;3.10;;;;;;;43.50;22.61;101775.41;5192189;28;20430;-60
2022/07/19 07:09:16;;;;;;;9.48;2.90;;;;;;;43.16;23.00;101792.66;5193420;28;20530;-60
2022/07/19 07:11:48;;;;;;;13.40;2.60;;;;;;;43.10;22.71;101778.13;5190207;28;20434;-54
2022/07/19 07:14:22;;;;;;;10.07;2.53;;;;;;;43.00;22.43;101776.66;5191190;28;20429;-61
2022/07/19 07:16:54;;;;;;;11.02;2.60;;;;;;;42.85;22.61;101771.78;5191749;28;20413;-62
2022/07/19 07:19:26;;;;;;;6.47;2.70;;;;;;;42.69;22.17;101768.06;5190973;28;20497;-61
2022/07/19 07:22:00;;;;;;;8.85;2.50;;;;;;;42.77;22.14;101764.38;5191679;28;20486;-61
2022/07/19 07:24:33;;;;;;;14.13;2.47;;;;;;;42.87;22.03;101765.91;5193863;28;20700;-61
2022/07/19 07:27:06;;;;;;;9.48;3.00;;;;;;;42.99;21.86;101769.47;5191744;28;21111;-58
2022/07/19 07:29:39;;;;;;;7.00;2.58;;;;;;;43.03;21.59;101764.84;5191811;28;20469;-55
2022/07/19 07:32:12;;;;;;;10.23;2.58;;;;;;;43.17;21.42;101763.69;5194239;28;20431;-61
2022/07/19 07:34:44;;;;;;;8.82;2.40;;;;;;;43.32;21.45;101753.81;5194980;28;20505;-57
2022/07/19 07:37:16;;;;;;;8.13;2.33;;;;;;;43.47;21.38;101753.06;5193657;28;20396;-60
2022/07/19 07:39:49;;;;;;;6.55;2.20;;;;;;;43.62;20.86;101765.44;5190972;28;20438;-60
2022/07/19 07:42:24;;;;;;;6.90;2.13;;;;;;;43.57;20.93;101757.34;5189160;28;20427;-60
2022/07/19 07:45:00;;;;;;;8.75;2.40;;;;;;;43.24;21.03;101763.91;5187603;28;20421;-60
2022/07/19 07:47:32;;;;;;;8.32;2.33;;;;;;;42.88;21.28;101732.19;5192330;28;20433;-63
2022/07/19 07:50:07;;;;;;;10.43;2.45;;;;;;;42.91;21.24;101755.69;5193659;28;20444;-61
2022/07/19 07:52:39;;;;;;;10.73;2.08;;;;;;;42.96;21.18;101758.22;5194125;28;20903;-57
2022/07/19 07:55:12;;;;;;;9.35;1.85;;;;;;;42.90;21.30;101754.91;5195818;28;20434;-53
2022/07/19 07:57:44;;;;;;;5.82;1.92;;;;;;;42.76;21.32;101757.22;5196645;28;20844;-61
2022/07/19 08:00:18;;;;;;;3.65;1.63;;;;;;;42.79;21.25;101756.53;5195587;28;20530;-57
2022/07/19 08:02:50;;;;;;;7.70;2.50;;;;;;;42.78;21.10;101760.47;5200542;28;20423;-59
2022/07/19 08:05:23;;;;;;;7.72;2.38;;;;;;;42.81;21.08;101760.56;5200068;28;20521;-61
2022/07/19 08:07:55;;;;;;;7.20;1.98;;;;;;;42.82;20.83;101755.81;5195838;28;20420;-60
2022/07/19 08:10:32;;;;;;;8.95;1.83;;;;;;;42.57;21.09;101753.00;5200492;28;20747;-59
2022/07/19 08:13:04;;;;;;;8.48;2.40;;;;;;;42.49;21.19;101748.38;5201843;28;20433;-60
2022/07/19 08:15:39;;;;;;;9.95;2.58;;;;;;;42.45;21.05;101744.66;5201465;28;20494;-59
2022/07/19 08:18:11;;;;;;;8.97;2.30;;;;;;;42.23;21.22;101750.63;5206882;28;20416;-59
2022/07/19 08:20:43;;;;;;;9.13;1.93;;;;;;;42.10;21.19;101742.28;5195140;28;20410;-60
2022/07/19 08:23:16;;;;;;;8.60;2.22;;;;;;;41.85;21.20;101735.81;5203957;28;20415;-60
2022/07/19 08:25:48;;;;;;;12.50;2.15;;;;;;;41.61;21.47;101730.19;5202880;28;20945;-55
2022/07/19 08:28:21;;;;;;;4.97;1.80;;;;;;;41.61;21.28;101733.75;5206595;28;20839;-59
2022/07/19 08:30:54;;;;;;;11.30;1.90;;;;;;;41.37;21.33;101736.38;5203709;28;21125;-48
2022/07/19 08:33:27;;;;;;;11.85;2.58;;;;;;;41.36;21.44;101732.00;5184176;28;20413;-60
2022/07/19 08:35:59;;;;;;;10.25;2.20;;;;;;;41.13;21.46;101735.09;5179964;28;20421;-60
2022/07/19 08:38:32;;;;;;;9.60;2.22;;;;;;;40.84;21.41;101741.44;5204366;28;20405;-59
2022/07/19 08:41:05;;;;;;;8.52;2.10;;;;;;;40.64;21.68;101736.66;5201671;28;20441;-59
2022/07/19 08:43:38;;;;;;;5.53;2.42;;;;;;;40.66;21.39;101731.59;5200166;28;20424;-60
2022/07/19 08:46:11;;;;;;;7.97;2.00;;;;;;;40.66;21.42;101726.03;5201272;28;20456;-60
2022/07/19 08:48:46;;;;;;;4.47;1.80;;;;;;;40.61;21.32;101727.06;5202173;28;20418;-60
2022/07/19 08:51:20;;;;;;;9.32;2.20;;;;;;;40.36;21.38;101727.94;5198191;28;20413;-57
2022/07/19 08:53:53;;;;;;;7.60;2.90;;;;;;;40.21;21.49;101730.09;5202084;28;20441;-61
2022/07/19 08:59:30;;;;;;;7.03;1.83;;;;;;;40.27;21.39;101722.44;5057941;28;21035;-57
2022/07/19 09:02:04;;;;;;;6.80;2.50;;;;;;;40.29;21.37;101725.69;5128786;28;20853;-60
2022/07/19 09:04:37;;;;;;;12.25;2.70;;;;;;;40.34;21.34;101708.91;5169189;28;20425;-58
2022/07/19 09:07:09;;;;;;;10.18;2.47;;;;;;;40.26;21.24;101716.09;5202854;28;20997;-59
2022/07/19 09:09:41;;;;;;;5.45;2.20;;;;;;;40.16;21.22;101715.59;5201356;28;20532;-58
2022/07/19 09:12:15;;;;;;;9.75;2.50;;;;;;;40.18;21.08;101713.34;5206019;28;20461;-59
2022/07/19 09:14:55;;;;;;;6.10;2.38;;;;;;;40.11;21.26;101713.84;5199488;28;20429;-60
2022/07/19 09:17:30;;;;;;;9.32;2.40;;;;;;;39.95;21.31;101709.94;5202124;28;20413;-59
2022/07/19 09:20:03;;;;;;;6.68;2.60;;;;;;;39.91;21.22;101715.34;5195850;28;20504;-59
2022/07/19 09:22:36;;;;;;;7.70;2.47;;;;;;;39.88;21.27;101716.78;5205066;28;20898;-60
2022/07/19 09:25:10;;;;;;;7.72;2.40;;;;;;;39.81;21.16;101705.44;5202212;28;20429;-57
2022/07/19 09:27:58;;;;;;;10.93;2.70;;;;;;;39.45;21.22;101700.22;5204092;28;20419;-58
2022/07/19 09:30:38;;;;;;;8.60;2.60;;;;;;;39.37;21.52;101707.38;5203034;28;21818;-59
2022/07/19 09:33:16;;;;;;;9.25;1.80;;;;;;;39.40;21.15;101703.97;5187642;28;20447;-57
2022/07/19 09:35:51;;;;;;;12.30;2.30;;;;;;;39.38;21.14;101702.66;5183598;28;20477;-60
2022/07/19 09:38:27;;;;;;;13.55;2.13;;;;;;;39.49;21.01;101703.13;5193007;28;20424;-57
2022/07/19 09:41:11;;;;;;;6.55;2.53;;;;;;;39.45;21.08;101697.47;5198293;28;20419;-58
2022/07/19 09:43:55;;;;;;;9.23;2.70;;;;;;;39.51;21.00;101695.34;5202023;28;20415;-61
2022/07/19 09:46:36;;;;;;;5.32;1.95;;;;;;;39.51;20.77;101687.06;5200554;28;20542;-60
2022/07/19 09:49:13;;;;;;;10.07;2.33;;;;;;;39.47;20.95;101689.66;5199448;28;21482;-61
2022/07/19 09:51:48;;;;;;;13.60;1.80;;;;;;;39.45;21.01;101680.06;5201797;28;20422;-59
2022/07/19 09:54:23;;;;;;;7.78;2.30;;;;;;;39.57;20.75;101694.03;5194925;28;20441;-59
2022/07/19 09:56:57;;;;;;;9.30;2.65;;;;;;;39.64;20.70;101683.28;5200610;28;20535;-58
2022/07/19 09:59:30;;;;;;;13.18;2.88;;;;;;;39.60;20.74;101688.66;5196091;28;20563;-58
2022/07/19 10:02:03;;;;;;;6.40;2.10;;;;;;;39.41;21.09;101680.72;5191277;28;20425;-58
2022/07/19 10:04:37;;;;;;;14.10;2.45;;;;;;;39.40;20.82;101683.81;5182315;28;20415;-56
2022/07/19 10:07:10;;;;;;;8.90;2.10;;;;;;;39.28;20.76;101681.69;5200219;28;20907;-58
2022/07/19 10:09:42;;;;;;;6.77;2.40;;;;;;;39.14;21.02;101679.03;5204709;28;20769;-56
2022/07/19 10:12:15;;;;;;;13.73;2.53;;;;;;;39.10;21.04;101680.03;5202586;28;21033;-56
2022/07/19 10:14:48;;;;;;;12.40;2.87;;;;;;;39.10;21.22;101669.78;5201400;28;20970;-58
2022/07/19 10:17:29;;;;;;;12.88;2.70;;;;;;;38.90;21.06;101635.34;5202851;28;20421;-58
2022/07/19 10:20:04;;;;;;;8.48;2.45;;;;;;;39.16;21.25;101667.69;5148443;28;20790;-58
2022/07/19 10:22:40;;;;;;;14.32;2.63;;;;;;;39.24;21.03;101672.41;5149415;28;20465;-56
2022/07/19 10:25:18;;;;;;;10.57;2.20;;;;;;;39.37;20.85;101670.66;5146326;28;20437;-57
2022/07/19 10:27:54;;;;;;;11.40;2.45;;;;;;;39.28;20.79;101659.59;5147599;28;20424;-57
2022/07/19 10:30:27;;;;;;;8.25;2.30;;;;;;;39.33;20.81;101659.41;5147572;28;20767;-56
2022/07/19 10:32:59;;;;;;;9.02;2.17;;;;;;;39.42;20.65;101649.16;5160619;28;20426;-57
2022/07/19 10:35:36;;;;;;;12.13;2.60;;;;;;;39.04;20.46;101615.84;5157364;28;20441;-55
2022/07/19 10:38:11;;;;;;;7.93;1.95;;;;;;;39.45;20.82;101657.94;5153031;28;20420;-55
2022/07/19 10:40:46;;;;;;;7.03;2.15;;;;;;;39.45;21.04;101657.94;5155096;28;20436;-58
2022/07/19 10:43:20;;;;;;;11.77;2.15;;;;;;;39.30;20.81;101660.06;5153895;28;20532;-56
2022/07/19 10:46:13;;;;;;;5.93;1.83;;;;;;;39.27;20.85;101646.88;5161056;28;21009;-57
2022/07/19 10:48:49;;;;;;;4.38;1.75;;;;;;;39.50;20.60;101638.44;5158278;28;20466;-58
2022/07/19 10:51:32;;;;;;;6.07;1.70;;;;;;;39.50;20.67;101642.03;5158075;28;20438;-57
2022/07/19 10:54:06;;;;;;;13.05;1.90;;;;;;;39.48;20.42;101635.19;5156345;28;20422;-55
2022/07/19 10:56:58;;;;;;;12.43;1.70;;;;;;;39.49;20.42;101634.03;5157148;28;20440;-57
2022/07/19 10:59:34;;;;;;;3.55;1.67;;;;;;;39.59;20.38;101630.94;5156075;28;20429;-57
2022/07/19 11:02:07;;;;;;;4.82;1.58;;;;;;;39.63;20.19;101632.72;5157700;28;20860;-60
2022/07/19 11:04:43;;;;;;;8.32;2.17;;;;;;;39.69;20.34;101640.84;5153691;28;20492;-59
2022/07/19 11:07:21;;;;;;;7.47;1.83;;;;;;;39.58;20.25;101607.19;5146051;28;20516;-58
2022/07/19 11:09:56;;;;;;;4.10;1.75;;;;;;;39.69;20.06;101625.06;5147658;28;20439;-47
2022/07/19 11:12:35;;;;;;;5.10;1.63;;;;;;;39.75;19.99;101629.31;5149817;28;20465;-60
2022/07/19 11:15:11;;;;;;;6.25;1.70;;;;;;;39.78;19.85;101631.41;5146633;28;20421;-57
2022/07/19 11:17:56;;;;;;;5.05;1.70;;;;;;;39.65;20.02;101604.75;5146663;28;20506;-58
2022/07/19 11:20:31;;;;;;;3.47;1.60;;;;;;;39.76;19.87;101611.56;5182876;28;20751;-57
2022/07/19 11:23:06;;;;;;;7.93;1.90;;;;;;;39.91;19.60;101623.25;5186600;28;20590;-59
2022/07/19 11:25:40;;;;;;;10.27;2.10;;;;;;;39.91;19.49;101609.41;5185576;28;20429;-56
2022/07/19 11:28:22;;;;;;;4.67;1.90;;;;;;;39.99;19.59;101606.63;5185692;28;20954;-54
2022/07/19 11:30:55;;;;;;;3.75;1.35;;;;;;;40.07;19.29;101616.03;5183612;28;20501;-59
2022/07/19 11:33:28;;;;;;;7.18;1.75;;;;;;;40.13;19.13;101609.16;5185298;28;20428;-57
2022/07/19 11:36:01;;;;;;;4.23;1.50;;;;;;;40.43;19.03;101606.44;5189840;28;20419;-56
2022/07/19 11:38:42;;;;;;;9.60;1.70;;;;;;;40.56;18.95;101613.69;5180455;28;20531;-54
2022/07/19 11:41:17;;;;;;;5.22;1.88;;;;;;;40.62;18.86;101595.75;5188691;28;20505;-58
2022/07/19 11:43:54;;;;;;;6.15;1.45;;;;;;;40.68;18.89;101602.72;5187338;28;20910;-57
2022/07/19 11:46:28;;;;;;;6.10;1.80;;;;;;;40.83;18.70;101608.81;5181924;28;20568;-60
2022/07/19 11:49:03;;;;;;;9.73;2.42;;;;;;;40.94;18.69;101607.25;5198725;28;20725;-58
2022/07/19 11:51:36;;;;;;;6.88;1.60;;;;;;;41.14;18.31;101598.16;5192651;28;21210;-59
2022/07/19 11:54:10;;;;;;;8.05;1.88;;;;;;;41.29;18.19;101607.00;5190757;28;20431;-59
2022/07/19 11:56:45;;;;;;;5.70;1.50;;;;;;;41.35;18.04;101595.34;5194781;28;20445;-58